createdAt,value
2023-05-04T00:00:29.713Z,9.16
2023-05-04T00:03:13.218Z,9.13
2023-05-04T00:05:41.916Z,9.11
2023-05-04T00:08:10.060Z,9.08
2023-05-04T00:10:38.102Z,9.04
2023-05-04T00:13:06.218Z,9.01
2023-05-04T00:15:34.518Z,8.97
2023-05-04T00:18:02.677Z,8.93
2023-05-04T00:20:30.875Z,8.90
2023-05-04T00:22:59.240Z,8.88
2023-05-04T00:25:27.392Z,8.88
2023-05-04T00:27:55.565Z,8.88
2023-05-04T00:30:24.053Z,8.88
2023-05-04T00:32:52.219Z,8.88
2023-05-04T00:35:20.405Z,8.88
2023-05-04T00:37:48.472Z,8.88
2023-05-04T00:40:16.453Z,8.90
2023-05-04T00:42:45.253Z,8.91
2023-05-04T00:45:15.604Z,8.93
2023-05-04T00:47:44.808Z,8.93
2023-05-04T00:50:13.079Z,8.90
2023-05-04T00:52:43.778Z,8.88
2023-05-04T00:55:12.038Z,8.86
2023-05-04T00:57:41.230Z,8.83
2023-05-04T01:00:12.511Z,8.79
2023-05-04T01:02:41.759Z,8.76
2023-05-04T01:05:12.746Z,8.73
2023-05-04T01:08:06.820Z,8.69
2023-05-04T01:11:02.934Z,8.65
2023-05-04T01:13:35.002Z,8.61
2023-05-04T01:16:03.630Z,8.58
2023-05-04T01:18:32.042Z,8.55
2023-05-04T01:21:02.788Z,8.52
2023-05-04T01:23:31.822Z,8.48
2023-05-04T01:26:17.159Z,8.44
2023-05-04T01:29:13.406Z,8.40
2023-05-04T01:31:43.854Z,8.36
2023-05-04T01:34:13.736Z,8.32
2023-05-04T01:36:42.778Z,8.28
2023-05-04T01:39:11.011Z,8.23
2023-05-04T01:41:39.481Z,8.18
2023-05-04T01:44:08.380Z,8.12
2023-05-04T01:46:36.910Z,8.08
2023-05-04T01:49:05.199Z,8.05
2023-05-04T01:51:33.245Z,8.05
2023-05-04T01:54:02.326Z,8.03
2023-05-04T01:56:30.508Z,8.02
2023-05-04T01:58:58.593Z,8.00
2023-05-04T02:01:26.678Z,8.01
2023-05-04T02:03:54.866Z,8.02
2023-05-04T02:06:23.217Z,8.03
2023-05-04T02:08:51.453Z,8.05
2023-05-04T02:11:19.636Z,8.07
2023-05-04T02:13:47.778Z,8.10
2023-05-04T02:16:16.222Z,8.12
2023-05-04T02:18:46.693Z,8.12
2023-05-04T02:21:17.292Z,8.13
2023-05-04T02:23:45.418Z,8.15
2023-05-04T02:26:13.608Z,8.17
2023-05-04T02:28:42.037Z,8.19
2023-05-04T02:31:10.726Z,8.21
2023-05-04T02:33:38.821Z,8.23
2023-05-04T02:36:07.463Z,8.24
2023-05-04T02:38:35.494Z,8.25
2023-05-04T02:41:05.074Z,8.26
2023-05-04T02:43:33.171Z,8.26
2023-05-04T02:46:02.458Z,8.25
2023-05-04T02:48:31.603Z,8.24
2023-05-04T02:50:59.779Z,8.24
2023-05-04T02:53:27.878Z,8.25
2023-05-04T02:55:56.126Z,8.24
2023-05-04T02:58:24.621Z,8.24
2023-05-04T03:00:56.326Z,8.25
2023-05-04T03:03:24.487Z,8.26
2023-05-04T03:05:52.553Z,8.27
2023-05-04T03:08:20.853Z,8.29
2023-05-04T03:10:49.084Z,8.31
2023-05-04T03:13:17.555Z,8.33
2023-05-04T03:15:45.716Z,8.34
2023-05-04T03:18:13.972Z,8.35
2023-05-04T03:20:42.072Z,8.36
2023-05-04T03:23:10.345Z,8.37
2023-05-04T03:25:38.454Z,8.37
2023-05-04T03:28:06.632Z,8.38
2023-05-04T03:30:36.345Z,8.37
2023-05-04T03:33:04.643Z,8.36
2023-05-04T03:35:33.939Z,8.34
2023-05-04T03:38:02.892Z,8.31
2023-05-04T03:40:31.170Z,8.30
2023-05-04T03:42:59.325Z,8.30
2023-05-04T03:45:28.732Z,8.32
2023-05-04T03:47:58.754Z,8.34
2023-05-04T03:50:27.241Z,8.36
2023-05-04T03:52:55.322Z,8.39
2023-05-04T03:55:24.448Z,8.42
2023-05-04T03:57:52.572Z,8.45
2023-05-04T04:00:21.134Z,8.48
2023-05-04T04:02:55.963Z,8.50
2023-05-04T04:05:24.367Z,8.53
2023-05-04T04:07:53.674Z,8.55
2023-05-04T04:10:21.852Z,8.56
2023-05-04T04:12:50.014Z,8.57
2023-05-04T04:15:18.116Z,8.59
2023-05-04T04:17:46.309Z,8.61
2023-05-04T04:20:14.555Z,8.65
2023-05-04T04:22:42.573Z,8.67
2023-05-04T04:25:10.794Z,8.69
2023-05-04T04:27:38.859Z,8.71
2023-05-04T04:30:08.038Z,8.74
2023-05-04T04:32:37.503Z,8.77
2023-05-04T04:35:07.115Z,8.81
2023-05-04T04:37:35.232Z,8.84
2023-05-04T04:40:04.444Z,8.87
2023-05-04T04:42:32.997Z,8.91
2023-05-04T04:45:01.142Z,8.95
2023-05-04T04:47:29.201Z,8.99
2023-05-04T04:49:57.522Z,9.04
2023-05-04T04:52:26.035Z,9.09
2023-05-04T04:54:54.154Z,9.13
2023-05-04T04:57:22.196Z,9.17
2023-05-04T04:59:50.719Z,9.22
2023-05-04T05:02:20.197Z,9.27
2023-05-04T05:04:48.371Z,9.30
2023-05-04T05:07:16.626Z,9.34
2023-05-04T05:09:44.758Z,9.38
2023-05-04T05:12:15.094Z,9.43
2023-05-04T05:14:43.595Z,9.47
2023-05-04T05:17:11.816Z,9.53
2023-05-04T05:19:42.091Z,9.59
2023-05-04T05:22:10.888Z,9.63
2023-05-04T05:24:38.993Z,9.67
2023-05-04T05:27:07.361Z,9.73
2023-05-04T05:29:37.215Z,9.81
2023-05-04T05:32:05.867Z,9.88
2023-05-04T05:34:34.020Z,9.94
2023-05-04T05:37:02.029Z,10.01
2023-05-04T05:39:30.156Z,10.07
2023-05-04T05:42:00.741Z,10.15
2023-05-04T05:44:28.929Z,10.22
2023-05-04T05:46:57.133Z,10.28
2023-05-04T05:49:25.098Z,10.33
2023-05-04T05:51:53.590Z,10.37
2023-05-04T05:54:23.168Z,10.41
2023-05-04T05:56:51.342Z,10.46
2023-05-04T05:59:19.541Z,10.49
2023-05-04T06:01:47.895Z,10.54
2023-05-04T06:04:16.094Z,10.60
2023-05-04T06:06:46.080Z,10.65
2023-05-04T06:09:14.622Z,10.72
2023-05-04T06:11:43.582Z,10.78
2023-05-04T06:14:12.187Z,10.83
2023-05-04T06:16:40.348Z,10.88
2023-05-04T06:19:08.732Z,10.93
2023-05-04T06:21:36.978Z,10.98
2023-05-04T06:24:05.804Z,11.04
2023-05-04T06:26:33.930Z,11.11
2023-05-04T06:29:02.179Z,11.18
2023-05-04T06:31:30.369Z,11.25
2023-05-04T06:33:58.697Z,11.32
2023-05-04T06:36:26.884Z,11.41
2023-05-04T06:38:58.275Z,11.50
2023-05-04T06:41:26.944Z,11.59
2023-05-04T06:43:58.858Z,11.66
2023-05-04T06:46:29.985Z,11.73
2023-05-04T06:48:58.473Z,11.82
2023-05-04T06:51:26.506Z,11.91
2023-05-04T06:53:54.614Z,12.00
2023-05-04T06:56:23.972Z,12.10
2023-05-04T06:58:52.246Z,12.19
2023-05-04T07:01:20.341Z,12.28
2023-05-04T07:03:49.036Z,12.37
2023-05-04T07:06:17.329Z,12.47
2023-05-04T07:08:45.707Z,12.56
2023-05-04T07:11:14.088Z,12.65
2023-05-04T07:13:42.519Z,12.76
2023-05-04T07:16:10.765Z,12.85
2023-05-04T07:18:40.497Z,12.94
2023-05-04T07:21:26.678Z,13.03
2023-05-04T07:23:56.842Z,13.17
2023-05-04T07:26:25.112Z,13.29
2023-05-04T07:28:53.292Z,13.40
2023-05-04T07:31:23.776Z,13.53
2023-05-04T07:33:51.910Z,13.66
2023-05-04T07:36:21.008Z,13.78
2023-05-04T07:38:49.225Z,13.89
2023-05-04T07:41:17.471Z,13.98
2023-05-04T07:43:46.143Z,14.08
2023-05-04T07:46:14.253Z,14.18
2023-05-04T07:48:42.420Z,14.29
2023-05-04T07:51:14.934Z,14.39
2023-05-04T07:53:43.771Z,14.46
2023-05-04T07:56:13.308Z,14.53
2023-05-04T07:58:41.653Z,14.59
2023-05-04T08:01:09.840Z,14.65
2023-05-04T08:03:38.401Z,14.69
2023-05-04T08:06:08.088Z,14.71
2023-05-04T08:08:36.264Z,14.71
2023-05-04T08:11:18.647Z,14.71
2023-05-04T08:13:49.813Z,14.64
2023-05-04T08:16:18.085Z,14.57
2023-05-04T08:18:46.160Z,14.51
2023-05-04T08:21:15.053Z,14.43
2023-05-04T08:23:43.733Z,14.35
2023-05-04T08:26:11.936Z,14.29
2023-05-04T08:28:45.771Z,14.27
2023-05-04T08:31:13.996Z,14.24
2023-05-04T08:33:42.184Z,14.20
2023-05-04T08:36:10.838Z,14.16
2023-05-04T08:38:39.052Z,14.09
2023-05-04T08:41:07.554Z,14.03
2023-05-04T08:43:36.776Z,14.02
2023-05-04T08:46:06.844Z,14.01
2023-05-04T08:48:35.359Z,13.97
2023-05-04T08:51:06.621Z,13.93
2023-05-04T08:53:37.360Z,13.91
2023-05-04T08:56:09.676Z,13.89
2023-05-04T08:58:43.918Z,13.85
2023-05-04T09:01:13.067Z,13.82
2023-05-04T09:03:42.844Z,13.80
2023-05-04T09:06:15.864Z,13.79
2023-05-04T09:08:44.015Z,13.81
2023-05-04T09:11:12.218Z,13.84
2023-05-04T09:13:42.992Z,13.87
2023-05-04T09:16:12.225Z,13.90
2023-05-04T09:18:46.117Z,13.95
2023-05-04T09:21:14.391Z,14.00
2023-05-04T09:23:52.722Z,14.05
2023-05-04T09:26:31.279Z,14.12
2023-05-04T09:29:14.030Z,14.18
2023-05-04T09:31:52.859Z,14.27
2023-05-04T09:34:21.586Z,14.32
2023-05-04T09:37:03.823Z,14.37
2023-05-04T09:39:31.965Z,14.45
2023-05-04T09:42:00.970Z,14.54
2023-05-04T09:44:29.945Z,14.60
2023-05-04T09:46:59.432Z,14.62
2023-05-04T09:49:34.363Z,14.65
2023-05-04T09:52:05.026Z,14.71
2023-05-04T09:54:35.995Z,14.74
2023-05-04T09:57:10.116Z,14.77
2023-05-04T09:59:39.700Z,14.82
2023-05-04T10:02:21.905Z,14.86
2023-05-04T10:04:52.976Z,14.85
2023-05-04T10:07:21.389Z,14.84
2023-05-04T10:09:51.472Z,14.83
2023-05-04T10:12:19.857Z,14.77
2023-05-04T10:14:48.152Z,14.73
2023-05-04T10:17:35.358Z,14.73
2023-05-04T10:20:28.236Z,14.76
2023-05-04T10:23:05.108Z,14.79
2023-05-04T10:25:43.327Z,14.77
2023-05-04T10:28:18.459Z,14.73
2023-05-04T10:30:46.749Z,14.73
2023-05-04T10:33:15.121Z,14.75
2023-05-04T10:35:56.107Z,14.80
2023-05-04T10:38:35.467Z,14.86
2023-05-04T10:41:17.387Z,14.90
2023-05-04T10:43:51.139Z,14.95
2023-05-04T10:46:24.200Z,15.00
2023-05-04T10:48:52.426Z,15.04
2023-05-04T10:51:30.149Z,15.06
2023-05-04T10:54:05.238Z,15.11
2023-05-04T10:56:33.577Z,15.19
2023-05-04T10:59:10.234Z,15.30
2023-05-04T11:01:45.241Z,15.45
2023-05-04T11:04:23.072Z,15.61
2023-05-04T11:07:06.264Z,15.68
2023-05-04T11:09:42.488Z,15.70
2023-05-04T11:12:10.892Z,15.72
2023-05-04T11:14:43.426Z,15.75
2023-05-04T11:19:52.319Z,15.73
2023-05-04T11:22:44.912Z,15.67
2023-05-04T11:25:13.351Z,15.62
2023-05-04T11:27:42.024Z,15.60
2023-05-04T11:30:10.703Z,15.51
2023-05-04T11:32:44.095Z,15.45
2023-05-04T11:35:18.131Z,15.43
2023-05-04T11:37:47.586Z,15.39
2023-05-04T11:40:19.330Z,15.36
2023-05-04T11:42:49.799Z,15.32
2023-05-04T11:45:44.830Z,15.29
2023-05-04T11:48:13.175Z,15.23
2023-05-04T11:50:41.869Z,15.19
2023-05-04T11:53:12.312Z,15.17
2023-05-04T11:55:41.928Z,15.14
2023-05-04T11:58:11.600Z,15.05
2023-05-04T12:00:49.349Z,14.99
2023-05-04T12:03:32.673Z,14.93
2023-05-04T12:06:11.818Z,14.87
2023-05-04T12:08:42.765Z,14.83
2023-05-04T12:11:20.473Z,14.83
2023-05-04T12:13:49.813Z,14.76
2023-05-04T12:16:19.830Z,14.70
2023-05-04T12:18:48.426Z,14.66
2023-05-04T12:21:21.655Z,14.61
2023-05-04T12:23:50.001Z,14.56
2023-05-04T12:26:19.745Z,14.50
2023-05-04T12:28:48.241Z,14.45
2023-05-04T12:31:16.533Z,14.43
2023-05-04T12:33:45.566Z,14.41
2023-05-04T12:36:13.864Z,14.38
2023-05-04T12:38:41.921Z,14.34
2023-05-04T12:41:11.557Z,14.30
2023-05-04T12:43:40.422Z,14.28
2023-05-04T12:46:09.128Z,14.25
2023-05-04T12:48:37.757Z,14.23
2023-05-04T12:51:06.330Z,14.22
2023-05-04T12:53:35.578Z,14.24
2023-05-04T12:56:05.873Z,14.27
2023-05-04T12:58:34.045Z,14.30
2023-05-04T13:01:02.527Z,14.31
2023-05-04T13:03:30.966Z,14.34
2023-05-04T13:05:59.221Z,14.35
2023-05-04T13:08:27.408Z,14.32
2023-05-04T13:10:55.955Z,14.33
2023-05-04T13:13:28.686Z,14.36
2023-05-04T13:15:57.487Z,14.37
2023-05-04T13:18:27.621Z,14.39
2023-05-04T13:20:56.822Z,14.42
2023-05-04T13:23:25.008Z,14.43
2023-05-04T13:25:53.381Z,14.43
2023-05-04T13:28:21.459Z,14.44
2023-05-04T13:30:50.797Z,14.45
2023-05-04T13:33:29.413Z,14.42
2023-05-04T13:35:59.259Z,14.43
2023-05-04T13:38:28.198Z,14.46
2023-05-04T13:40:56.711Z,14.47
2023-05-04T13:43:25.072Z,14.48
2023-05-04T13:45:53.401Z,14.46
2023-05-04T13:48:21.614Z,14.39
2023-05-04T13:50:49.951Z,14.33
2023-05-04T13:53:18.343Z,14.29
2023-05-04T13:55:47.191Z,14.26
2023-05-04T13:58:15.345Z,14.23
2023-05-04T14:00:43.908Z,14.20
2023-05-04T14:03:12.848Z,14.17
2023-05-04T14:05:41.112Z,14.16
2023-05-04T14:08:09.474Z,14.14
2023-05-04T14:10:38.168Z,14.12
2023-05-04T14:13:07.028Z,14.09
2023-05-04T14:15:35.571Z,14.07
2023-05-04T14:18:03.893Z,14.05
2023-05-04T14:20:32.308Z,14.00
2023-05-04T14:23:00.619Z,13.97
2023-05-04T14:25:28.847Z,13.93
2023-05-04T14:27:57.136Z,13.90
2023-05-04T14:30:26.966Z,13.89
2023-05-04T14:32:55.705Z,13.88
2023-05-04T14:35:24.176Z,13.87
2023-05-04T14:37:52.377Z,13.87
2023-05-04T14:40:20.678Z,13.88
2023-05-04T14:42:48.831Z,13.86
2023-05-04T14:45:17.444Z,13.84
2023-05-04T14:47:45.644Z,13.82
2023-05-04T14:50:13.987Z,13.83
2023-05-04T14:52:42.204Z,13.81
2023-05-04T14:55:10.674Z,13.79
2023-05-04T14:57:38.994Z,13.75
2023-05-04T15:00:09.715Z,13.71
2023-05-04T15:02:38.819Z,13.70
2023-05-04T15:05:07.642Z,13.69
2023-05-04T15:07:36.270Z,13.66
2023-05-04T15:10:04.952Z,13.63
2023-05-04T15:12:33.603Z,13.61
2023-05-04T15:15:01.899Z,13.57
2023-05-04T15:17:30.926Z,13.54
2023-05-04T15:20:01.676Z,13.52
2023-05-04T15:22:29.819Z,13.49
2023-05-04T15:24:57.977Z,13.47
2023-05-04T15:27:26.060Z,13.46
2023-05-04T15:29:54.995Z,13.45
2023-05-04T15:32:23.110Z,13.43
2023-05-04T15:35:03.862Z,13.40
2023-05-04T15:37:33.640Z,13.37
2023-05-04T15:40:02.779Z,13.33
2023-05-04T15:42:31.240Z,13.30
2023-05-04T15:44:59.407Z,13.27
2023-05-04T15:47:27.734Z,13.24
2023-05-04T15:49:55.857Z,13.22
2023-05-04T15:52:24.168Z,13.20
2023-05-04T15:54:52.301Z,13.19
2023-05-04T15:57:20.612Z,13.19
2023-05-04T15:59:49.912Z,13.19
2023-05-04T16:02:18.528Z,13.19
2023-05-04T16:04:46.788Z,13.19
2023-05-04T16:07:15.182Z,13.17
2023-05-04T16:09:43.492Z,13.15
2023-05-04T16:12:11.528Z,13.13
2023-05-04T16:14:39.961Z,13.11
2023-05-04T16:17:08.154Z,13.09
2023-05-04T16:19:36.394Z,13.06
2023-05-04T16:22:04.645Z,13.04
2023-05-04T16:24:34.480Z,13.02
2023-05-04T16:27:03.493Z,12.99
2023-05-04T16:29:31.648Z,12.97
2023-05-04T16:32:00.238Z,12.96
2023-05-04T16:34:28.464Z,12.95
2023-05-04T16:36:57.053Z,12.93
2023-05-04T16:39:50.603Z,12.91
2023-05-04T16:42:21.509Z,12.90
2023-05-04T16:44:50.119Z,12.90
2023-05-04T16:47:18.293Z,12.90
2023-05-04T16:49:46.721Z,12.89
2023-05-04T16:52:15.036Z,12.87
2023-05-04T16:54:43.353Z,12.86
2023-05-04T16:57:11.754Z,12.85
2023-05-04T16:59:39.940Z,12.84
2023-05-04T17:02:08.661Z,12.82
2023-05-04T17:04:36.990Z,12.81
2023-05-04T17:07:05.111Z,12.79
2023-05-04T17:09:33.397Z,12.78
2023-05-04T17:12:02.578Z,12.77
2023-05-04T17:14:30.795Z,12.76
2023-05-04T17:16:59.187Z,12.74
2023-05-04T17:19:27.512Z,12.73
2023-05-04T17:21:55.613Z,12.70
2023-05-04T17:24:23.775Z,12.67
2023-05-04T17:26:51.982Z,12.64
2023-05-04T17:29:20.114Z,12.62
2023-05-04T17:31:48.349Z,12.58
2023-05-04T17:34:16.552Z,12.55
2023-05-04T17:36:44.846Z,12.51
2023-05-04T17:39:13.011Z,12.48
2023-05-04T17:41:41.251Z,12.45
2023-05-04T17:44:09.430Z,12.41
2023-05-04T17:46:37.509Z,12.38
2023-05-04T17:49:06.076Z,12.34
2023-05-04T17:51:34.312Z,12.31
2023-05-04T17:54:02.369Z,12.28
2023-05-04T17:56:30.636Z,12.26
2023-05-04T17:58:58.679Z,12.25
2023-05-04T18:01:27.049Z,12.22
2023-05-04T18:03:55.579Z,12.20
2023-05-04T18:06:26.908Z,12.17
2023-05-04T18:08:56.565Z,12.14
2023-05-04T18:11:24.829Z,12.10
2023-05-04T18:13:57.205Z,12.05
2023-05-04T18:16:25.847Z,12.02
2023-05-04T18:18:54.179Z,11.98
2023-05-04T18:21:23.490Z,11.94
2023-05-04T18:23:51.630Z,11.91
2023-05-04T18:26:22.521Z,11.87
2023-05-04T18:28:50.986Z,11.82
2023-05-04T18:31:19.832Z,11.76
2023-05-04T18:33:48.054Z,11.73
2023-05-04T18:36:16.280Z,11.68
2023-05-04T18:38:48.330Z,11.62
2023-05-04T18:41:16.983Z,11.56
2023-05-04T18:43:45.422Z,11.52
2023-05-04T18:46:13.712Z,11.47
2023-05-04T18:48:41.962Z,11.41
2023-05-04T18:51:10.188Z,11.34
2023-05-04T18:53:38.539Z,11.30
2023-05-04T18:56:08.517Z,11.26
2023-05-04T18:58:37.964Z,11.21
2023-05-04T19:01:06.612Z,11.17
2023-05-04T19:03:34.941Z,11.13
2023-05-04T19:06:03.446Z,11.09
2023-05-04T19:08:33.115Z,11.05
2023-05-04T19:11:03.330Z,11.03
2023-05-04T19:13:31.597Z,11.00
2023-05-04T19:15:59.824Z,10.98
2023-05-04T19:18:29.984Z,10.96
2023-05-04T19:20:58.921Z,10.94
2023-05-04T19:23:30.442Z,10.92
2023-05-04T19:25:58.821Z,10.91
2023-05-04T19:28:27.044Z,10.89
2023-05-04T19:30:55.333Z,10.88
2023-05-04T19:33:28.173Z,10.87
2023-05-04T19:36:05.073Z,10.85
2023-05-04T19:38:33.318Z,10.85
2023-05-04T19:41:01.802Z,10.83
2023-05-04T19:43:30.419Z,10.83
2023-05-04T19:45:58.698Z,10.81
2023-05-04T19:48:26.993Z,10.79
2023-05-04T19:50:56.132Z,10.77
2023-05-04T19:53:24.669Z,10.75
2023-05-04T19:55:52.841Z,10.73
2023-05-04T19:58:26.009Z,10.71
2023-05-04T20:00:54.273Z,10.70
2023-05-04T20:03:22.552Z,10.69
2023-05-04T20:05:51.802Z,10.68
2023-05-04T20:08:19.853Z,10.67
2023-05-04T20:10:47.932Z,10.65
2023-05-04T20:13:16.056Z,10.65
2023-05-04T20:15:45.001Z,10.64
2023-05-04T20:18:13.281Z,10.62
2023-05-04T20:20:41.801Z,10.61
2023-05-04T20:23:09.888Z,10.60
2023-05-04T20:25:38.363Z,10.57
2023-05-04T20:28:06.823Z,10.57
2023-05-04T20:30:34.975Z,10.56
2023-05-04T20:33:03.214Z,10.55
2023-05-04T20:35:31.445Z,10.53
2023-05-04T20:37:59.689Z,10.52
2023-05-04T20:40:28.101Z,10.51
2023-05-04T20:42:56.249Z,10.50
2023-05-04T20:45:24.553Z,10.50
2023-05-04T20:47:52.934Z,10.49
2023-05-04T20:50:21.708Z,10.48
2023-05-04T20:52:50.739Z,10.48
2023-05-04T20:55:19.084Z,10.48
2023-05-04T20:57:47.154Z,10.46
2023-05-04T21:00:15.591Z,10.45
2023-05-04T21:02:43.801Z,10.45
2023-05-04T21:05:12.064Z,10.44
2023-05-04T21:07:40.729Z,10.43
2023-05-04T21:10:10.103Z,10.41
2023-05-04T21:12:38.335Z,10.40
2023-05-04T21:15:06.704Z,10.39
2023-05-04T21:17:34.786Z,10.39
2023-05-04T21:20:03.224Z,10.38
2023-05-04T21:22:31.300Z,10.38
2023-05-04T21:24:59.575Z,10.38
2023-05-04T21:27:27.745Z,10.37
2023-05-04T21:29:55.957Z,10.37
2023-05-04T21:32:24.172Z,10.36
2023-05-04T21:34:52.693Z,10.35
2023-05-04T21:37:21.255Z,10.34
2023-05-04T21:39:54.380Z,10.33
2023-05-04T21:42:23.534Z,10.32
2023-05-04T21:44:56.153Z,10.32
2023-05-04T21:47:24.844Z,10.32
2023-05-04T21:49:54.102Z,10.31
2023-05-04T21:52:22.892Z,10.30
2023-05-04T21:54:51.178Z,10.29
2023-05-04T21:57:19.530Z,10.29
2023-05-04T21:59:49.665Z,10.28
2023-05-04T22:02:18.251Z,10.28
2023-05-04T22:04:46.510Z,10.28
2023-05-04T22:07:15.639Z,10.27
2023-05-04T22:09:43.726Z,10.24
2023-05-04T22:12:12.086Z,10.23
2023-05-04T22:14:42.208Z,10.21
2023-05-04T22:17:11.058Z,10.20
2023-05-04T22:19:39.284Z,10.17
2023-05-04T22:22:07.672Z,10.15
2023-05-04T22:24:35.946Z,10.11
2023-05-04T22:27:04.290Z,10.08
2023-05-04T22:29:35.334Z,10.04
2023-05-04T22:32:03.598Z,9.99
2023-05-04T22:34:31.808Z,9.94
2023-05-04T22:36:59.904Z,9.90
2023-05-04T22:39:28.077Z,9.85
2023-05-04T22:41:56.279Z,9.80
2023-05-04T22:44:24.465Z,9.75
2023-05-04T22:46:52.529Z,9.70
2023-05-04T22:49:20.895Z,9.65
2023-05-04T22:51:49.019Z,9.62
2023-05-04T22:54:17.027Z,9.57
2023-05-04T22:56:45.978Z,9.52
2023-05-04T22:59:14.111Z,9.47
2023-05-04T23:01:43.701Z,9.41
2023-05-04T23:04:12.111Z,9.36
2023-05-04T23:06:40.300Z,9.30
2023-05-04T23:09:08.989Z,9.25
2023-05-04T23:11:37.829Z,9.20
2023-05-04T23:14:06.200Z,9.15
2023-05-04T23:16:34.397Z,9.10
2023-05-04T23:19:02.782Z,9.05
2023-05-04T23:21:31.538Z,9.00
2023-05-04T23:23:59.628Z,8.97
2023-05-04T23:26:27.966Z,8.92
2023-05-04T23:28:56.358Z,8.87
2023-05-04T23:31:24.666Z,8.82
2023-05-04T23:33:52.699Z,8.77
2023-05-04T23:36:20.918Z,8.72
2023-05-04T23:38:48.962Z,8.68
2023-05-04T23:41:17.129Z,8.64
2023-05-04T23:43:45.487Z,8.59
2023-05-04T23:46:13.617Z,8.54
2023-05-04T23:48:42.123Z,8.50
2023-05-04T23:51:10.138Z,8.46
2023-05-04T23:53:38.271Z,8.44
2023-05-04T23:56:07.408Z,8.41
2023-05-04T23:58:35.771Z,8.39
